createdAt,value
2023-08-20T00:00:08.604Z,5.32
2023-08-20T00:02:42.187Z,6.18
2023-08-20T00:05:09.447Z,5.32
2023-08-20T00:07:37.038Z,6.22
2023-08-20T00:10:03.837Z,6.72
2023-08-20T00:12:30.995Z,5.93
2023-08-20T00:15:03.199Z,6.20
2023-08-20T00:17:30.501Z,5.90
2023-08-20T00:19:57.309Z,5.78
2023-08-20T00:22:25.251Z,5.05
2023-08-20T00:24:53.148Z,5.75
2023-08-20T00:27:19.919Z,5.32
2023-08-20T00:29:46.619Z,5.75
2023-08-20T00:32:13.245Z,5.78
2023-08-20T00:34:39.751Z,5.35
2023-08-20T00:37:06.269Z,5.53
2023-08-20T00:39:33.164Z,5.60
2023-08-20T00:41:59.666Z,5.55
2023-08-20T00:44:26.197Z,6.15
2023-08-20T00:46:52.746Z,5.85
2023-08-20T00:49:19.713Z,5.93
2023-08-20T00:51:46.626Z,5.63
2023-08-20T00:54:13.414Z,5.75
2023-08-20T00:56:39.960Z,6.63
2023-08-20T00:59:06.962Z,5.05
2023-08-20T01:01:33.500Z,5.65
2023-08-20T01:04:00.020Z,6.07
2023-08-20T01:06:37.522Z,5.47
2023-08-20T01:09:13.952Z,5.43
2023-08-20T01:14:17.752Z,5.43
2023-08-20T01:16:46.068Z,4.93
2023-08-20T01:19:18.169Z,5.25
2023-08-20T01:22:23.690Z,5.43
2023-08-20T01:25:05.569Z,4.70
2023-08-20T01:27:44.569Z,5.32
2023-08-20T01:30:11.912Z,5.55
2023-08-20T01:32:39.690Z,5.43
2023-08-20T01:35:07.193Z,5.03
2023-08-20T01:37:33.929Z,5.18
2023-08-20T01:40:00.634Z,5.22
2023-08-20T01:42:27.185Z,5.07
2023-08-20T01:44:53.626Z,5.80
2023-08-20T01:47:20.141Z,5.93
2023-08-20T01:49:46.625Z,7.53
2023-08-20T01:52:13.137Z,8.63
2023-08-20T01:54:39.607Z,7.95
2023-08-20T01:57:06.138Z,6.20
2023-08-20T01:59:33.188Z,6.82
2023-08-20T02:01:59.765Z,5.97
2023-08-20T02:04:26.320Z,6.85
2023-08-20T02:06:53.045Z,6.25
2023-08-20T02:09:19.545Z,6.75
2023-08-20T02:11:46.239Z,6.30
2023-08-20T02:14:12.735Z,7.22
2023-08-20T02:16:39.235Z,8.75
2023-08-20T02:19:05.725Z,10.10
2023-08-20T02:21:32.790Z,8.45
2023-08-20T02:24:02.250Z,9.50
2023-08-20T02:26:28.792Z,9.90
2023-08-20T02:28:55.284Z,9.98
2023-08-20T02:31:21.797Z,9.15
2023-08-20T02:33:50.448Z,8.85
2023-08-20T02:36:17.022Z,9.20
2023-08-20T02:38:43.490Z,7.40
2023-08-20T02:41:09.937Z,7.68
2023-08-20T02:43:36.435Z,7.00
2023-08-20T02:46:02.973Z,6.20
2023-08-20T02:48:30.397Z,6.90
2023-08-20T02:50:57.459Z,6.72
2023-08-20T02:53:24.016Z,7.32
2023-08-20T02:55:50.486Z,6.25
2023-08-20T02:58:17.001Z,6.40
2023-08-20T03:00:43.523Z,6.25
2023-08-20T03:03:10.054Z,6.05
2023-08-20T03:05:39.160Z,6.35
2023-08-20T03:08:05.908Z,5.72
2023-08-20T03:10:33.009Z,5.63
2023-08-20T03:13:00.554Z,5.80
2023-08-20T03:15:27.034Z,5.65
2023-08-20T03:17:53.727Z,5.88
2023-08-20T03:20:20.241Z,5.50
2023-08-20T03:22:46.803Z,5.75
2023-08-20T03:25:13.360Z,5.22
2023-08-20T03:27:39.971Z,5.50
2023-08-20T03:30:07.286Z,5.57
2023-08-20T03:32:33.929Z,5.90
2023-08-20T03:35:00.751Z,5.90
2023-08-20T03:37:27.669Z,5.65
2023-08-20T03:39:54.186Z,5.38
2023-08-20T03:42:20.890Z,5.95
2023-08-20T03:44:49.205Z,5.18
2023-08-20T03:47:16.886Z,5.80
2023-08-20T03:49:43.392Z,6.15
2023-08-20T03:52:09.894Z,6.43
2023-08-20T03:54:37.008Z,6.18
2023-08-20T03:57:04.110Z,5.35
2023-08-20T03:59:31.381Z,5.13
2023-08-20T04:01:58.391Z,6.25
2023-08-20T04:04:25.790Z,5.70
2023-08-20T04:06:52.423Z,5.53
2023-08-20T04:09:18.932Z,6.00
2023-08-20T04:11:45.743Z,7.53
2023-08-20T04:14:12.229Z,7.40
2023-08-20T04:16:38.773Z,7.28
2023-08-20T04:19:05.597Z,8.63
2023-08-20T04:21:32.648Z,9.15
2023-08-20T04:23:59.831Z,8.43
2023-08-20T04:26:26.567Z,8.95
2023-08-20T04:28:53.068Z,8.98
2023-08-20T04:31:19.923Z,9.88
2023-08-20T04:33:53.208Z,10.02
2023-08-20T04:36:23.846Z,11.35
2023-08-20T04:38:50.323Z,12.15
2023-08-20T04:41:16.902Z,13.45
2023-08-20T04:43:44.187Z,12.45
2023-08-20T04:46:11.258Z,13.00
2023-08-20T04:48:37.817Z,13.27
2023-08-20T04:51:04.389Z,14.05
2023-08-20T04:53:31.142Z,14.02
2023-08-20T04:55:59.111Z,14.77
2023-08-20T04:58:25.666Z,15.30
2023-08-20T05:00:52.295Z,13.55
2023-08-20T05:03:19.618Z,13.35
2023-08-20T05:05:50.303Z,13.32
2023-08-20T05:08:17.533Z,13.18
2023-08-20T05:10:44.143Z,13.38
2023-08-20T05:13:12.225Z,12.10
2023-08-20T05:15:38.724Z,11.93
2023-08-20T05:18:05.433Z,13.73
2023-08-20T05:20:32.429Z,12.30
2023-08-20T05:22:59.258Z,12.13
2023-08-20T05:25:26.200Z,13.10
2023-08-20T05:27:52.683Z,13.43
2023-08-20T05:30:19.199Z,13.73
2023-08-20T05:32:45.665Z,13.05
2023-08-20T05:35:14.302Z,12.65
2023-08-20T05:40:09.561Z,12.48
2023-08-20T05:42:36.681Z,12.73
2023-08-20T05:45:06.677Z,13.65
2023-08-20T05:47:33.846Z,12.90
2023-08-20T05:50:01.077Z,12.70
2023-08-20T05:52:27.901Z,12.93
2023-08-20T05:54:54.344Z,12.93
2023-08-20T05:57:22.096Z,11.73
2023-08-20T05:59:48.965Z,11.25
2023-08-20T06:02:19.433Z,11.50
2023-08-20T06:04:46.002Z,12.25
2023-08-20T06:07:12.816Z,12.70
2023-08-20T06:09:40.028Z,13.60
2023-08-20T06:12:07.250Z,12.10
2023-08-20T06:14:33.707Z,12.07
2023-08-20T06:17:00.241Z,11.85
2023-08-20T06:19:27.112Z,12.18
2023-08-20T06:21:53.582Z,12.23
2023-08-20T06:24:20.092Z,13.23
2023-08-20T06:26:47.048Z,12.32
2023-08-20T06:29:13.575Z,11.07
2023-08-20T06:31:40.626Z,12.13
2023-08-20T06:34:07.320Z,11.18
2023-08-20T06:36:33.787Z,10.43
2023-08-20T06:39:00.236Z,10.57
2023-08-20T06:41:26.726Z,10.25
2023-08-20T06:43:53.247Z,10.27
2023-08-20T06:46:20.089Z,9.77
2023-08-20T06:48:46.631Z,8.45
2023-08-20T06:51:16.570Z,9.18
2023-08-20T06:53:43.470Z,10.18
2023-08-20T06:56:10.522Z,9.15
2023-08-20T06:58:37.280Z,9.07
2023-08-20T07:01:03.827Z,7.88
2023-08-20T07:03:30.348Z,8.10
2023-08-20T07:05:56.801Z,8.43
2023-08-20T07:08:23.310Z,8.98
2023-08-20T07:10:49.802Z,8.25
2023-08-20T07:13:16.280Z,8.02
2023-08-20T07:15:43.549Z,7.32
2023-08-20T07:18:10.251Z,7.13
2023-08-20T07:20:36.796Z,7.18
2023-08-20T07:23:05.199Z,6.85
2023-08-20T07:25:32.149Z,7.32
2023-08-20T07:27:58.605Z,6.47
2023-08-20T07:30:25.077Z,7.97
2023-08-20T07:32:51.722Z,6.20
2023-08-20T07:35:18.339Z,6.30
2023-08-20T07:37:44.850Z,7.22
2023-08-20T07:40:16.615Z,7.00
2023-08-20T07:42:43.700Z,6.30
2023-08-20T07:45:10.900Z,6.40
2023-08-20T07:47:38.475Z,6.80
2023-08-20T07:50:06.385Z,6.75
2023-08-20T07:52:33.877Z,6.07
2023-08-20T07:55:00.589Z,6.07
2023-08-20T07:57:27.090Z,5.32
2023-08-20T07:59:53.806Z,5.50
2023-08-20T08:02:20.260Z,5.82
2023-08-20T08:04:46.753Z,5.05
2023-08-20T08:07:13.253Z,5.07
2023-08-20T08:09:39.887Z,6.22
2023-08-20T08:12:06.471Z,5.70
2023-08-20T08:14:32.918Z,6.57
2023-08-20T08:16:59.638Z,5.05
2023-08-20T08:19:26.272Z,5.07
2023-08-20T08:21:52.798Z,4.88
2023-08-20T08:24:19.415Z,5.20
2023-08-20T08:26:46.063Z,5.50
2023-08-20T08:29:12.545Z,4.93
2023-08-20T08:31:39.127Z,5.40
2023-08-20T08:34:06.025Z,5.32
2023-08-20T08:36:32.622Z,5.03
2023-08-20T08:38:59.142Z,5.60
2023-08-20T08:41:27.298Z,4.53
2023-08-20T08:43:56.326Z,3.95
2023-08-20T08:46:24.593Z,3.85
2023-08-20T08:48:52.422Z,4.32
2023-08-20T08:51:19.500Z,4.45
2023-08-20T08:53:47.574Z,4.03
2023-08-20T08:56:14.168Z,4.55
2023-08-20T08:58:40.655Z,4.10
2023-08-20T09:01:07.470Z,4.57
2023-08-20T09:03:34.225Z,5.20
2023-08-20T09:06:03.032Z,4.22
2023-08-20T09:08:31.685Z,4.30
2023-08-20T09:10:59.788Z,5.10
2023-08-20T09:13:33.474Z,4.50
2023-08-20T09:16:00.269Z,4.72
2023-08-20T09:18:26.758Z,5.05
2023-08-20T09:20:53.297Z,4.68
2023-08-20T09:23:19.787Z,5.15
2023-08-20T09:25:46.338Z,5.40
2023-08-20T09:28:13.051Z,4.60
2023-08-20T09:30:39.800Z,4.88
2023-08-20T09:33:13.146Z,4.50
2023-08-20T09:35:39.725Z,4.00
2023-08-20T09:38:06.389Z,4.35
2023-08-20T09:40:32.969Z,4.57
2023-08-20T09:43:02.184Z,4.13
2023-08-20T09:45:29.940Z,4.68
2023-08-20T09:47:58.759Z,3.97
2023-08-20T09:50:27.053Z,4.40
2023-08-20T09:53:07.441Z,4.50
2023-08-20T09:55:36.685Z,3.75
2023-08-20T09:58:03.866Z,4.55
2023-08-20T10:00:31.555Z,4.43
2023-08-20T10:02:58.711Z,4.43
2023-08-20T10:05:26.251Z,4.45
2023-08-20T10:07:57.577Z,5.72
2023-08-20T10:10:24.366Z,4.53
2023-08-20T10:12:51.414Z,5.65
2023-08-20T10:15:18.166Z,4.68
2023-08-20T10:17:46.211Z,5.18
2023-08-20T10:20:15.697Z,4.82
2023-08-20T10:22:44.725Z,4.35
2023-08-20T10:25:31.763Z,4.30
2023-08-20T10:28:19.531Z,4.05
2023-08-20T10:31:06.477Z,4.40
2023-08-20T10:33:38.781Z,4.90
2023-08-20T10:36:10.947Z,3.90
2023-08-20T10:38:38.750Z,4.90
2023-08-20T10:41:09.601Z,7.13
2023-08-20T10:43:39.159Z,4.43
2023-08-20T10:46:20.062Z,3.80
2023-08-20T10:48:58.035Z,5.07
2023-08-20T10:51:30.089Z,5.70
2023-08-20T10:54:02.801Z,3.63
2023-08-20T10:56:43.217Z,5.78
2023-08-20T10:59:14.485Z,7.18
2023-08-20T11:01:44.818Z,5.25
2023-08-20T11:04:11.479Z,5.45
2023-08-20T11:06:39.563Z,6.40
2023-08-20T11:09:06.464Z,7.15
2023-08-20T11:11:33.513Z,4.72
2023-08-20T11:14:07.835Z,4.78
2023-08-20T11:16:36.052Z,3.83
2023-08-20T11:19:02.833Z,4.63
2023-08-20T11:21:29.565Z,3.88
2023-08-20T11:23:56.179Z,5.07
2023-08-20T11:26:22.647Z,4.90
2023-08-20T11:28:49.104Z,5.32
2023-08-20T11:31:15.935Z,3.90
2023-08-20T11:33:42.467Z,4.07
2023-08-20T11:36:09.037Z,4.40
2023-08-20T11:38:35.544Z,4.40
2023-08-20T11:41:02.734Z,4.85
2023-08-20T11:43:29.779Z,4.53
2023-08-20T11:45:56.952Z,4.07
2023-08-20T11:48:23.827Z,6.43
2023-08-20T11:50:53.452Z,6.28
2023-08-20T11:55:49.891Z,3.80
2023-08-20T11:58:16.492Z,6.18
2023-08-20T12:00:43.348Z,4.00
2023-08-20T12:03:10.595Z,6.43
2023-08-20T12:05:37.188Z,4.95
2023-08-20T12:08:05.345Z,4.07
2023-08-20T12:10:33.546Z,4.20
2023-08-20T12:13:00.074Z,4.60
2023-08-20T12:15:26.856Z,7.20
2023-08-20T12:18:04.313Z,3.88
2023-08-20T12:20:32.441Z,4.40
2023-08-20T12:23:04.612Z,4.75
2023-08-20T12:25:33.310Z,4.40
2023-08-20T12:28:01.545Z,4.25
2023-08-20T12:30:28.127Z,4.93
2023-08-20T12:32:54.916Z,4.05
2023-08-20T12:35:21.529Z,4.38
2023-08-20T12:37:48.035Z,4.78
2023-08-20T12:40:15.260Z,3.45
2023-08-20T12:42:43.785Z,4.47
2023-08-20T12:45:11.314Z,5.13
2023-08-20T12:47:38.099Z,3.85
2023-08-20T12:50:05.470Z,6.45
2023-08-20T12:52:34.253Z,7.15
2023-08-20T12:55:00.997Z,4.07
2023-08-20T12:57:27.543Z,4.10
2023-08-20T12:59:54.023Z,7.45
2023-08-20T13:02:20.542Z,3.70
2023-08-20T13:04:47.394Z,8.75
2023-08-20T13:07:14.262Z,4.40
2023-08-20T13:09:41.316Z,4.18
2023-08-20T13:12:11.156Z,5.65
2023-08-20T13:14:37.904Z,5.72
2023-08-20T13:17:04.668Z,3.83
2023-08-20T13:19:31.118Z,3.50
2023-08-20T13:21:57.608Z,5.22
2023-08-20T13:24:24.087Z,4.43
2023-08-20T13:26:52.221Z,5.32
2023-08-20T13:29:18.701Z,7.97
2023-08-20T13:31:45.202Z,7.53
2023-08-20T13:34:11.679Z,3.90
2023-08-20T13:36:39.578Z,4.00
2023-08-20T13:39:06.129Z,4.63
2023-08-20T13:41:32.829Z,3.67
2023-08-20T13:44:02.435Z,5.53
2023-08-20T13:46:28.952Z,4.70
2023-08-20T13:48:57.659Z,4.25
2023-08-20T13:51:24.150Z,5.63
2023-08-20T13:53:50.613Z,4.82
2023-08-20T13:56:17.106Z,5.10
2023-08-20T13:58:43.578Z,3.45
2023-08-20T14:01:10.486Z,4.40
2023-08-20T14:03:37.141Z,4.85
2023-08-20T14:06:03.673Z,4.72
2023-08-20T14:08:30.126Z,3.58
2023-08-20T14:10:56.683Z,3.53
2023-08-20T14:13:23.173Z,5.07
2023-08-20T14:15:49.784Z,5.57
2023-08-20T14:18:16.909Z,7.43
2023-08-20T14:20:43.941Z,4.10
2023-08-20T14:23:10.510Z,4.28
2023-08-20T14:25:37.697Z,4.10
2023-08-20T14:28:04.362Z,4.68
2023-08-20T14:30:30.860Z,4.90
2023-08-20T14:32:57.332Z,5.10
2023-08-20T14:35:24.095Z,4.45
2023-08-20T14:37:53.829Z,6.07
2023-08-20T14:40:20.773Z,7.72
2023-08-20T14:42:47.245Z,4.35
2023-08-20T14:45:13.800Z,4.68
2023-08-20T14:47:40.404Z,5.85
2023-08-20T14:50:07.838Z,5.35
2023-08-20T14:52:35.640Z,7.45
2023-08-20T14:55:02.332Z,5.18
2023-08-20T14:57:40.940Z,5.60
2023-08-20T15:00:13.138Z,8.00
2023-08-20T15:02:39.910Z,7.03
2023-08-20T15:05:06.627Z,6.95
2023-08-20T15:07:33.351Z,6.13
2023-08-20T15:09:59.873Z,11.27
2023-08-20T15:12:26.358Z,5.85
2023-08-20T15:14:52.849Z,5.93
2023-08-20T15:17:19.387Z,7.53
2023-08-20T15:19:45.839Z,7.38
2023-08-20T15:22:14.849Z,5.60
2023-08-20T15:24:41.314Z,6.25
2023-08-20T15:27:07.793Z,6.18
2023-08-20T15:29:34.228Z,6.30
2023-08-20T15:32:01.109Z,9.35
2023-08-20T15:34:28.029Z,5.88
2023-08-20T15:36:54.584Z,6.57
2023-08-20T15:39:21.272Z,6.28
2023-08-20T15:41:47.743Z,6.95
2023-08-20T15:44:14.648Z,8.18
2023-08-20T15:46:41.137Z,6.90
2023-08-20T15:49:07.723Z,7.38
2023-08-20T15:51:34.807Z,7.95
2023-08-20T15:54:01.578Z,9.02
2023-08-20T15:56:28.086Z,9.00
2023-08-20T15:58:54.551Z,8.82
2023-08-20T16:01:21.217Z,10.95
2023-08-20T16:03:47.782Z,6.93
2023-08-20T16:06:14.541Z,7.40
2023-08-20T16:08:41.005Z,7.88
2023-08-20T16:11:07.528Z,8.20
2023-08-20T16:13:34.006Z,8.93
2023-08-20T16:16:01.414Z,7.90
2023-08-20T16:18:27.911Z,10.43
2023-08-20T16:20:54.612Z,9.55
2023-08-20T16:23:21.080Z,9.40
2023-08-20T16:25:47.558Z,8.02
2023-08-20T16:28:14.038Z,7.95
2023-08-20T16:30:40.843Z,9.40
2023-08-20T16:33:08.478Z,8.95
2023-08-20T16:35:35.249Z,9.57
2023-08-20T16:38:01.864Z,9.52
2023-08-20T16:40:28.461Z,10.40
2023-08-20T16:42:55.008Z,7.70
2023-08-20T16:45:21.868Z,6.82
2023-08-20T16:47:48.779Z,9.18
2023-08-20T16:50:15.547Z,9.05
2023-08-20T16:52:42.037Z,6.70
2023-08-20T16:55:08.931Z,9.75
2023-08-20T16:57:35.756Z,10.48
2023-08-20T17:00:02.585Z,9.73
2023-08-20T17:02:29.473Z,7.22
2023-08-20T17:04:56.066Z,8.23
2023-08-20T17:07:22.556Z,8.35
2023-08-20T17:09:49.108Z,6.85
2023-08-20T17:12:16.004Z,6.20
2023-08-20T17:14:42.598Z,6.72
2023-08-20T17:17:09.765Z,6.47
2023-08-20T17:19:36.268Z,5.95
2023-08-20T17:22:02.773Z,6.25
2023-08-20T17:24:29.241Z,5.78
2023-08-20T17:26:55.713Z,6.75
2023-08-20T17:29:22.166Z,6.60
2023-08-20T17:31:48.630Z,6.57
2023-08-20T17:34:15.143Z,6.15
2023-08-20T17:36:41.641Z,6.65
2023-08-20T17:39:08.183Z,7.10
2023-08-20T17:41:34.783Z,6.13
2023-08-20T17:44:01.246Z,6.63
2023-08-20T17:46:42.671Z,6.43
2023-08-20T17:49:09.201Z,7.45
2023-08-20T17:51:37.232Z,7.20
2023-08-20T17:54:04.043Z,6.63
2023-08-20T17:56:30.830Z,6.05
2023-08-20T17:58:57.399Z,5.78
2023-08-20T18:01:23.977Z,6.03
2023-08-20T18:03:50.831Z,6.47
2023-08-20T18:06:17.594Z,6.38
2023-08-20T18:08:46.808Z,6.25
2023-08-20T18:11:13.391Z,6.32
2023-08-20T18:13:40.972Z,6.50
2023-08-20T18:16:07.574Z,6.65
2023-08-20T18:18:34.816Z,5.68
2023-08-20T18:21:01.294Z,6.07
2023-08-20T18:23:27.791Z,5.93
2023-08-20T18:25:54.637Z,6.15
2023-08-20T18:28:21.168Z,6.38
2023-08-20T18:30:51.532Z,6.15
2023-08-20T18:33:19.114Z,6.53
2023-08-20T18:35:45.638Z,6.30
2023-08-20T18:38:17.626Z,6.35
2023-08-20T18:40:44.105Z,5.97
2023-08-20T18:43:10.674Z,6.00
2023-08-20T18:45:37.204Z,5.65
2023-08-20T18:48:03.970Z,5.45
2023-08-20T18:50:30.491Z,6.30
2023-08-20T18:52:57.232Z,6.05
2023-08-20T18:55:23.712Z,6.10
2023-08-20T18:57:50.190Z,6.22
2023-08-20T19:00:16.937Z,6.07
2023-08-20T19:02:43.564Z,6.18
2023-08-20T19:05:11.498Z,5.95
2023-08-20T19:07:37.964Z,5.88
2023-08-20T19:10:04.877Z,6.05
2023-08-20T19:12:31.337Z,6.22
2023-08-20T19:14:57.809Z,6.60
2023-08-20T19:17:24.330Z,5.80
2023-08-20T19:19:50.834Z,6.18
2023-08-20T19:22:17.319Z,5.85
2023-08-20T19:24:43.838Z,5.38
2023-08-20T19:27:10.292Z,5.40
2023-08-20T19:29:36.767Z,6.60
2023-08-20T19:32:03.298Z,5.82
2023-08-20T19:34:31.844Z,5.80
2023-08-20T19:36:58.798Z,6.05
2023-08-20T19:39:25.489Z,6.07
2023-08-20T19:41:52.088Z,5.18
2023-08-20T19:44:18.665Z,6.45
2023-08-20T19:46:45.723Z,5.28
2023-08-20T19:49:12.233Z,5.70
2023-08-20T19:51:39.210Z,5.72
2023-08-20T19:54:06.419Z,5.90
2023-08-20T19:56:32.980Z,6.32
2023-08-20T19:58:59.455Z,6.03
2023-08-20T20:01:27.040Z,5.53
2023-08-20T20:03:53.912Z,6.15
2023-08-20T20:06:23.810Z,6.00
2023-08-20T20:08:50.317Z,5.55
2023-08-20T20:11:17.815Z,6.10
2023-08-20T20:13:44.332Z,5.47
2023-08-20T20:16:10.914Z,6.70
2023-08-20T20:18:37.578Z,5.95
2023-08-20T20:21:04.074Z,6.45
2023-08-20T20:23:30.546Z,6.90
2023-08-20T20:25:57.161Z,6.90
2023-08-20T20:28:23.607Z,6.20
2023-08-20T20:30:50.108Z,6.53
2023-08-20T20:33:16.589Z,6.25
2023-08-20T20:35:43.084Z,6.22
2023-08-20T20:38:09.532Z,6.30
2023-08-20T20:40:36.125Z,6.22
2023-08-20T20:43:02.601Z,6.57
2023-08-20T20:45:29.427Z,7.07
2023-08-20T20:47:55.960Z,6.93
2023-08-20T20:50:22.501Z,6.53
2023-08-20T20:52:48.997Z,6.28
2023-08-20T20:55:15.633Z,7.03
2023-08-20T20:57:42.189Z,7.22
2023-08-20T21:00:09.411Z,7.20
2023-08-20T21:02:36.283Z,7.35
2023-08-20T21:05:03.094Z,7.90
2023-08-20T21:07:29.807Z,6.72
2023-08-20T21:09:56.200Z,7.18
2023-08-20T21:12:23.107Z,7.70
2023-08-20T21:14:49.658Z,8.02
2023-08-20T21:17:16.130Z,7.70
2023-08-20T21:19:42.567Z,8.30
2023-08-20T21:22:13.264Z,8.20
2023-08-20T21:24:40.270Z,8.85
2023-08-20T21:27:07.578Z,8.55
2023-08-20T21:29:38.530Z,9.35
2023-08-20T21:32:05.399Z,8.68
2023-08-20T21:34:32.148Z,8.13
2023-08-20T21:37:00.086Z,9.15
2023-08-20T21:39:26.600Z,9.30
2023-08-20T21:41:53.384Z,9.23
2023-08-20T21:44:20.024Z,8.63
2023-08-20T21:46:46.742Z,9.57
2023-08-20T21:49:13.262Z,10.43
2023-08-20T21:51:40.157Z,9.95
2023-08-20T21:54:06.629Z,9.57
2023-08-20T21:56:35.474Z,9.73
2023-08-20T21:59:04.975Z,9.98
2023-08-20T22:01:31.531Z,9.73
2023-08-20T22:03:58.082Z,10.00
2023-08-20T22:06:24.609Z,10.35
2023-08-20T22:08:51.370Z,10.82
2023-08-20T22:11:17.864Z,10.25
2023-08-20T22:13:44.437Z,10.15
2023-08-20T22:16:10.983Z,9.75
2023-08-20T22:18:37.507Z,9.52
2023-08-20T22:21:04.134Z,9.68
2023-08-20T22:23:31.409Z,9.98
2023-08-20T22:25:57.939Z,9.95
2023-08-20T22:28:24.423Z,10.30
2023-08-20T22:30:50.893Z,9.60
2023-08-20T22:33:17.412Z,10.05
2023-08-20T22:35:50.087Z,9.38
2023-08-20T22:38:16.568Z,10.50
2023-08-20T22:40:43.713Z,10.45
2023-08-20T22:43:10.414Z,9.35
2023-08-20T22:45:37.072Z,10.32
2023-08-20T22:48:03.847Z,10.25
2023-08-20T22:50:30.830Z,10.05
2023-08-20T22:52:57.917Z,10.43
2023-08-20T22:55:25.327Z,10.02
2023-08-20T22:57:52.065Z,11.25
2023-08-20T23:00:18.805Z,11.02
2023-08-20T23:02:48.704Z,11.32
2023-08-20T23:05:15.292Z,9.68
2023-08-20T23:07:41.871Z,10.82
2023-08-20T23:10:08.715Z,9.90
2023-08-20T23:12:35.387Z,10.77
2023-08-20T23:15:02.077Z,10.40
2023-08-20T23:17:28.745Z,10.43
2023-08-20T23:19:55.388Z,10.48
2023-08-20T23:22:21.908Z,10.73
2023-08-20T23:24:48.731Z,11.02
2023-08-20T23:27:15.344Z,11.05
2023-08-20T23:29:41.782Z,9.90
2023-08-20T23:32:08.254Z,11.05
2023-08-20T23:34:34.699Z,10.25
2023-08-20T23:37:01.195Z,10.77
2023-08-20T23:39:27.636Z,11.48
2023-08-20T23:41:54.140Z,10.90
2023-08-20T23:44:20.748Z,11.30
2023-08-20T23:46:48.629Z,10.75
2023-08-20T23:49:15.872Z,10.48
2023-08-20T23:51:42.358Z,11.40
2023-08-20T23:54:08.843Z,11.50
2023-08-20T23:56:35.707Z,11.70
2023-08-20T23:59:02.233Z,11.73
